Ammansville, Texas
Current Conditions -  °F | °C
As of 10:30 PM on Saturday 20 Dec 2014 (Local Time) from K3T5 Reporting Station
Overcast Overcast  
Wind Chill: 11°   Ceiling: 2300
Heat Index: 11°   Visibility: 10mi
Dew Point:   Wind: 0mph
Humidity: 90%   Direction: NA
Pressure: 30.17"   Gusts: NA
Location:  29.8569°N, 96.9311°W
Report Text: K3T5 210430Z AUTO 00000KT 10SM OVC023 11/09 A3017 RMK AO2 T01100094
Loading
Personal Weather Stations






























Interactive Weather Map New forecast layout! Learn more

10-Day Weather Forecast

Advertisements
Track Severe Weather on mobile